»·PEaware :: N143VT KBLH-KSDM

N143VT :: KBLH-KSDM

FLIGHT INFORMATION

Flight Status: Arrived
Operator: Privately registered:
United States
More flights under this callsign
Pilot: Anonymous 16492 (16492)
Aircraft: Unknown
(EPIC)
More flights by this aircraft type
Origin: KBLH Blythe
United States
Destination: KSDM Brown Mun
United States
More flights between these airports :: More routes between these airports
Route: + BLH V135 BZA V66 IPL CHASR2
File this flight plan on PilotEdge
Remarks:
Altitude:
(Current/Filed)
26,000ft
Speed:
(Current/Filed)
300kts
Departed: 01-Mar-18 06:36 PM
Arrived: 01-Mar-18 07:18 PM
Distance/Time
Traveled:
130nm/0:42
Distance/Time
To Go:
Arrived

Flight Plot

Page will automatically refresh every two minutes.

Flight plan parsing failed; only flown route is shown


Map Options




Map Legend


Flown Route
Filed Route
Departure Airport
Arrival Airport
Navaid (VOR, NDB)
Fix

Horizontal Profiles

Position Reports

Time Latitude Longitude Heading Altitude Ground
Speed
01-Mar-18 18:24 33.614051 -114.713098 91 401ft 0kts
01-Mar-18 18:25 33.614051 -114.713098 91 401ft 0kts
01-Mar-18 18:26 33.614051 -114.713098 91 401ft 0kts
01-Mar-18 18:27 33.614051 -114.713098 91 401ft 0kts
01-Mar-18 18:28 33.614051 -114.713098 91 401ft 0kts
01-Mar-18 18:29 33.614051 -114.713098 91 401ft 0kts
01-Mar-18 18:30 33.614051 -114.713098 91 401ft 0kts
01-Mar-18 18:31 33.614051 -114.713098 91 401ft 0kts
01-Mar-18 18:32 33.614051 -114.713098 91 401ft 0kts
01-Mar-18 18:33 33.614051 -114.713098 91 401ft 0kts
01-Mar-18 18:34 33.614051 -114.713098 91 401ft 0kts
01-Mar-18 18:35 33.614051 -114.713098 91 401ft 0kts
01-Mar-18 18:36 33.614051 -114.713098 91 401ft 0kts
01-Mar-18 18:37 33.614051 -114.713097 91 401ft 0kts
01-Mar-18 18:38 33.614051 -114.713097 91 401ft 0kts
01-Mar-18 18:39 33.614772 -114.712789 12 401ft 0kts
01-Mar-18 18:40 33.614772 -114.712789 12 401ft 0kts
01-Mar-18 18:41 33.615259 -114.707039 69 401ft 27kts
01-Mar-18 18:42 33.616226 -114.706384 339 401ft 15kts
01-Mar-18 18:43 33.612344 -114.734625 212 1043ft 141kts
01-Mar-18 18:44 33.575236 -114.743477 181 3084ft 160kts
01-Mar-18 18:45 33.528284 -114.736050 155 5121ft 205kts
01-Mar-18 18:46 33.470343 -114.737582 187 5101ft 217kts
01-Mar-18 18:47 33.416784 -114.734654 164 6798ft 148kts
01-Mar-18 18:48 33.373928 -114.720920 171 8727ft 166kts
01-Mar-18 18:49 33.329586 -114.710633 175 11535ft 172kts
01-Mar-18 18:50 33.282458 -114.704890 214 13863ft 167kts
01-Mar-18 18:51 33.254295 -114.746744 233 16043ft 165kts
01-Mar-18 18:52 33.226022 -114.789252 233 17997ft 167kts
01-Mar-18 18:53 33.197248 -114.832858 234 19779ft 169kts
01-Mar-18 18:54 33.168021 -114.877230 234 21393ft 172kts
01-Mar-18 18:55 33.138346 -114.922266 234 22850ft 174kts
01-Mar-18 18:56 33.107458 -114.969088 235 24186ft 174kts
01-Mar-18 18:57 33.076883 -115.015402 234 25296ft 181kts
01-Mar-18 18:58 33.045212 -115.063324 234 26099ft 196kts
01-Mar-18 18:59 33.008125 -115.119387 234 26105ft 232kts
01-Mar-18 19:00 32.966281 -115.182478 234 26106ft 252kts
01-Mar-18 19:01 32.921670 -115.249614 233 26104ft 264kts
01-Mar-18 19:02 32.876067 -115.318116 233 26100ft 270kts
01-Mar-18 19:03 32.831072 -115.385595 233 26084ft 273kts
01-Mar-18 19:04 32.780931 -115.460660 233 24580ft 302kts
01-Mar-18 19:05 32.747558 -115.547271 260 24100ft 284kts
01-Mar-18 19:06 32.737642 -115.637308 262 23933ft 274kts
01-Mar-18 19:07 32.729582 -115.723547 262 22591ft 299kts
01-Mar-18 19:08 32.720400 -115.823865 262 21113ft 311kts
01-Mar-18 19:09 32.711016 -115.925892 262 19350ft 306kts
01-Mar-18 19:10 32.701885 -116.024311 263 17354ft 298kts
01-Mar-18 19:11 32.693178 -116.121921 263 15353ft 298kts
01-Mar-18 19:12 32.684430 -116.219517 263 13355ft 299kts
01-Mar-18 19:13 32.675871 -116.314569 263 11335ft 273kts
01-Mar-18 19:14 32.668095 -116.399896 263 10003ft 236kts
01-Mar-18 19:15 32.659458 -116.468613 260 10007ft 191kts
01-Mar-18 19:16 32.651039 -116.527702 260 10018ft 188kts
01-Mar-18 19:17 32.641259 -116.597642 260 8819ft 251kts
01-Mar-18 19:18 32.629515 -116.681267 260 6901ft 277kts
01-Mar-18 19:19 32.616732 -116.765675 256 5041ft 238kts
01-Mar-18 19:20 32.599112 -116.826977 251 4982ft 159kts
01-Mar-18 19:21 32.585561 -116.869279 251 3978ft 126kts
01-Mar-18 19:22 32.572397 -116.907909 254 2096ft 126kts
01-Mar-18 19:23 32.569471 -116.944382 276 958ft 102kts
01-Mar-18 19:24 32.572020 -116.972370 276 529ft 73kts
01-Mar-18 19:25 32.570869 -116.984392 221 529ft 24kts
01-Mar-18 19:26 32.570331 -116.985442 279 529ft 0kts
01-Mar-18 19:27 32.570331 -116.985442 279 529ft 0kts
01-Mar-18 19:28 32.570331 -116.985442 279 529ft 0kts
01-Mar-18 19:29 32.570331 -116.985442 279 529ft 0kts
01-Mar-18 19:30 32.570331 -116.985442 279 529ft 0kts
01-Mar-18 19:31 32.570331 -116.985442 279 529ft 0kts
01-Mar-18 19:32 32.570331 -116.985442 279 529ft 0kts
01-Mar-18 19:33 32.570331 -116.985442 279 529ft 0kts
01-Mar-18 19:34 32.570331 -116.985442 279 529ft 0kts
01-Mar-18 19:35 32.570331 -116.985442 279 529ft 0kts
01-Mar-18 19:36 32.570331 -116.985442 279 529ft 0kts
01-Mar-18 19:37 32.570331 -116.985442 279 529ft 0kts
01-Mar-18 19:38 32.570331 -116.985442 279 529ft 0kts
01-Mar-18 19:39 32.570331 -116.985442 279 529ft 0kts
01-Mar-18 19:40 32.570331 -116.985442 279 529ft 0kts

Navigation Log

Ident Type
Flight plan parsing failed, navigation log unavailable